Time;durP1;ratioP1;P1;durP2;ratioP2;P2;SDS_P1;SDS_P2;PMS_P1;PMS_P2;Temp;Humidity;BMP_temperature;BMP_pressure;BME280_temperature;BME280_humidity;BME280_pressure;Samples;Min_cycle;Max_cycle;Signal;HPM_P1;HPM_P2
2022/05/07 00:00:06;;;;;;;0.00;0.00;;;;;;;14.84;79.31;102099.06;7365376;19;20026;-60
2022/05/07 00:02:32;;;;;;;0.00;0.00;;;;;;;14.78;79.03;102105.31;7364142;19;20026;-60
2022/05/07 00:04:57;;;;;;;0.00;0.00;;;;;;;14.70;78.93;102105.44;7363932;19;20639;-59
2022/05/07 00:07:22;;;;;;;0.00;0.00;;;;;;;14.63;78.50;102109.06;7364063;19;20399;-60
2022/05/07 00:09:48;;;;;;;0.00;0.00;;;;;;;14.58;78.31;102107.41;7360080;19;20010;-60
2022/05/07 00:12:13;;;;;;;0.00;0.00;;;;;;;14.50;78.57;102107.53;7366505;19;20934;-61
2022/05/07 00:14:38;;;;;;;0.10;0.10;;;;;;;14.44;78.87;102110.22;7364793;19;20002;-59
2022/05/07 00:20:02;;;;;;;0.00;0.00;;;;;;;14.27;79.30;102116.63;7260276;19;2004453;-59
2022/05/07 00:22:27;;;;;;;0.00;0.00;;;;;;;14.23;79.27;102119.31;7365427;19;20018;-60
2022/05/07 00:24:53;;;;;;;0.00;0.00;;;;;;;14.17;79.57;102125.53;7358898;19;20014;-59
2022/05/07 00:27:18;;;;;;;0.00;0.00;;;;;;;14.10;79.35;102126.53;7367771;19;19998;-60
2022/05/07 00:29:43;;;;;;;0.00;0.00;;;;;;;13.92;79.86;102103.13;7363317;19;20715;-60
2022/05/07 00:32:09;;;;;;;0.00;0.00;;;;;;;13.95;79.96;102129.38;7366723;19;20006;-60
2022/05/07 00:34:35;;;;;;;0.00;0.00;;;;;;;13.89;80.27;102126.81;7362606;19;20664;-61
2022/05/07 00:37:00;;;;;;;0.00;0.00;;;;;;;13.84;80.70;102133.88;7366539;19;20529;-60
2022/05/07 00:39:26;;;;;;;0.00;0.00;;;;;;;13.79;80.62;102133.06;7364007;19;20085;-60
2022/05/07 00:41:52;;;;;;;0.00;0.00;;;;;;;13.73;80.59;102134.88;7365146;19;20006;-59
2022/05/07 00:44:17;;;;;;;0.00;0.00;;;;;;;13.67;80.81;102128.84;7362077;19;20459;-59
2022/05/07 00:46:48;;;;;;;0.00;0.00;;;;;;;13.64;80.89;102129.78;7362552;19;20015;-60
2022/05/07 00:49:14;;;;;;;0.10;0.10;;;;;;;13.59;80.82;102128.09;7363705;19;20014;-60
2022/05/07 00:51:40;;;;;;;0.00;0.00;;;;;;;13.56;81.00;102131.59;7365177;19;20021;-61
2022/05/07 00:54:08;;;;;;;0.00;0.00;;;;;;;13.52;81.24;102135.16;7363595;19;20089;-59
2022/05/07 00:56:34;;;;;;;0.00;0.00;;;;;;;13.41;80.94;102121.28;7362166;19;20562;-61
2022/05/07 00:59:00;;;;;;;0.00;0.00;;;;;;;13.48;81.23;102136.06;7364154;19;20458;-60
2022/05/07 01:01:26;;;;;;;0.00;0.00;;;;;;;13.46;81.61;102138.72;7362321;19;20016;-59
2022/05/07 01:03:53;;;;;;;0.00;0.00;;;;;;;13.45;81.43;102130.88;7365015;19;20070;-58
2022/05/07 01:06:19;;;;;;;0.10;0.10;;;;;;;13.43;81.18;102127.38;7360858;19;20006;-59
2022/05/07 01:08:49;;;;;;;0.10;0.10;;;;;;;13.44;80.98;102132.63;7364832;19;20006;-61
2022/05/07 01:11:19;;;;;;;0.00;0.00;;;;;;;13.44;80.88;102137.03;7361091;19;20021;-60
2022/05/07 01:13:45;;;;;;;0.00;0.00;;;;;;;13.41;80.78;102131.78;7362311;19;19999;-60
2022/05/07 01:16:12;;;;;;;0.10;0.10;;;;;;;13.38;80.78;102131.81;7363644;19;20023;-59
2022/05/07 01:18:38;;;;;;;0.00;0.00;;;;;;;13.36;80.87;102125.72;7362793;19;20010;-60
2022/05/07 01:21:08;;;;;;;0.00;0.00;;;;;;;13.35;80.65;102127.50;7358099;19;21354;-61
2022/05/07 01:23:34;;;;;;;0.00;0.00;;;;;;;13.32;80.87;102127.50;7360396;19;20081;-60
2022/05/07 01:26:00;;;;;;;0.10;0.10;;;;;;;13.30;80.89;102128.44;7362251;19;20187;-60
2022/05/07 01:28:25;;;;;;;0.00;0.00;;;;;;;13.26;80.32;102124.09;7361014;19;20002;-61
2022/05/07 01:30:51;;;;;;;0.00;0.00;;;;;;;13.25;80.23;102136.34;7364016;19;20016;-59
2022/05/07 01:33:16;;;;;;;0.00;0.00;;;;;;;13.22;80.10;102129.38;7361524;19;20749;-61
2022/05/07 01:35:41;;;;;;;0.00;0.00;;;;;;;13.19;80.11;102120.66;7361410;19;20038;-59
2022/05/07 01:38:07;;;;;;;0.00;0.00;;;;;;;13.16;80.14;102123.28;7363808;19;20010;-60
2022/05/07 01:40:32;;;;;;;0.00;0.00;;;;;;;13.12;79.95;102122.44;7357776;19;20002;-59
2022/05/07 01:42:58;;;;;;;0.00;0.00;;;;;;;13.09;79.78;102135.59;7358075;19;20018;-59
2022/05/07 01:45:23;;;;;;;0.00;0.00;;;;;;;13.04;79.96;102137.41;7360497;19;20010;-61
2022/05/07 01:50:33;;;;;;;0.00;0.00;;;;;;;12.97;80.07;102148.81;7363495;19;20044;-59
2022/05/07 01:52:58;;;;;;;0.00;0.00;;;;;;;12.93;80.28;102142.75;7362251;19;19998;-60
2022/05/07 01:55:24;;;;;;;0.00;0.00;;;;;;;12.90;80.36;102144.53;7361695;19;20794;-60
2022/05/07 01:57:49;;;;;;;0.00;0.00;;;;;;;12.84;80.54;102144.59;7357138;19;20017;-60
2022/05/07 02:00:14;;;;;;;0.00;0.00;;;;;;;12.80;79.99;102140.25;7359510;19;20010;-60
2022/05/07 02:02:40;;;;;;;0.10;0.10;;;;;;;12.71;79.89;102134.19;7357045;19;20018;-60
2022/05/07 02:05:05;;;;;;;0.00;0.00;;;;;;;12.68;79.97;102149.97;7360483;19;20025;-60
2022/05/07 02:07:31;;;;;;;0.00;0.00;;;;;;;12.66;79.90;102146.47;7360944;19;20525;-60
2022/05/07 02:09:56;;;;;;;0.00;0.00;;;;;;;12.61;79.89;102148.25;7356781;19;20014;-60
2022/05/07 02:12:22;;;;;;;0.00;0.00;;;;;;;12.56;79.90;102141.31;7355769;19;20011;-60
2022/05/07 02:14:47;;;;;;;0.00;0.00;;;;;;;12.46;79.58;102133.53;7355333;19;20399;-59
2022/05/07 02:17:13;;;;;;;0.00;0.00;;;;;;;12.36;78.84;102117.88;7358097;19;20006;-60
2022/05/07 02:19:38;;;;;;;0.00;0.00;;;;;;;12.31;78.91;102124.91;7358900;19;20066;-60
2022/05/07 02:22:03;;;;;;;0.05;0.05;;;;;;;12.39;79.43;102141.47;7342658;19;20013;-61
2022/05/07 02:24:29;;;;;;;0.00;0.00;;;;;;;12.33;79.68;102141.50;7358226;19;20010;-60
2022/05/07 02:26:54;;;;;;;0.00;0.00;;;;;;;12.30;80.05;102146.75;7357575;19;20018;-60
2022/05/07 02:29:20;;;;;;;0.00;0.00;;;;;;;12.27;80.26;102146.78;7358371;19;20015;-58
2022/05/07 02:32:03;;;;;;;0.00;0.00;;;;;;;12.23;80.05;102140.69;7359123;19;20043;-60
2022/05/07 02:34:36;;;;;;;0.00;0.00;;;;;;;12.20;79.73;102145.94;7363018;19;20042;-61
2022/05/07 02:37:03;;;;;;;0.00;0.00;;;;;;;12.15;79.79;102143.34;7364286;19;20989;-60
2022/05/07 02:39:28;;;;;;;0.00;0.00;;;;;;;12.10;80.33;102144.25;7361069;19;20018;-60
2022/05/07 02:44:39;;;;;;;0.00;0.00;;;;;;;11.94;79.53;102138.25;7361070;19;20059;-59
2022/05/07 02:47:04;;;;;;;0.00;0.00;;;;;;;11.94;79.76;102144.34;7365269;19;20011;-60
2022/05/07 02:49:30;;;;;;;0.00;0.00;;;;;;;11.91;79.84;102135.63;7365112;19;20013;-59
2022/05/07 02:51:56;;;;;;;0.00;0.00;;;;;;;11.87;80.23;102137.41;7363596;19;20058;-58
2022/05/07 02:54:21;;;;;;;0.10;0.10;;;;;;;11.85;80.39;102138.28;7364998;19;20395;-60
2022/05/07 02:56:47;;;;;;;0.00;0.00;;;;;;;11.81;80.52;102136.53;7363856;19;20037;-60
2022/05/07 02:59:12;;;;;;;0.00;0.00;;;;;;;11.81;80.47;102141.75;7365559;19;20074;-60
2022/05/07 03:01:39;;;;;;;0.10;0.10;;;;;;;11.79;80.79;102139.16;7363804;19;20438;-59
2022/05/07 03:04:04;;;;;;;0.00;0.00;;;;;;;11.77;81.45;102140.91;7359369;19;20010;-60
2022/05/07 03:06:30;;;;;;;0.00;0.00;;;;;;;11.78;81.46;102145.28;7362924;19;20441;-59
2022/05/07 03:08:55;;;;;;;0.00;0.00;;;;;;;11.75;81.29;102136.56;7365805;19;20535;-60
2022/05/07 03:11:20;;;;;;;0.00;0.00;;;;;;;11.75;80.72;102147.88;7363337;19;20010;-60
2022/05/07 03:13:46;;;;;;;0.00;0.00;;;;;;;11.74;80.63;102146.16;7363840;19;20017;-60
2022/05/07 03:16:11;;;;;;;0.00;0.00;;;;;;;11.73;80.57;102138.31;7364912;19;20013;-60
2022/05/07 03:18:36;;;;;;;0.00;0.00;;;;;;;11.70;79.80;102144.41;7358739;19;20458;-60
2022/05/07 03:21:02;;;;;;;0.00;0.00;;;;;;;11.54;79.95;102133.16;7364344;19;20006;-60
2022/05/07 03:23:28;;;;;;;0.08;0.08;;;;;;;11.64;80.13;102155.78;7364863;19;20827;-60
2022/05/07 03:25:53;;;;;;;0.00;0.00;;;;;;;11.60;80.43;102154.06;7365514;19;20644;-61
2022/05/07 03:28:19;;;;;;;0.05;0.05;;;;;;;11.60;80.91;102159.28;7364987;19;20027;-60
2022/05/07 03:30:44;;;;;;;0.10;0.10;;;;;;;11.54;81.10;102146.22;7363269;19;20006;-60
2022/05/07 03:33:10;;;;;;;0.00;0.00;;;;;;;11.62;81.35;102157.56;7364152;19;20457;-59
2022/05/07 03:35:35;;;;;;;0.10;0.10;;;;;;;11.58;81.54;102154.94;7363714;19;20086;-59
2022/05/07 03:38:01;;;;;;;0.00;0.00;;;;;;;11.68;82.03;102156.66;7364896;19;20023;-59
2022/05/07 03:40:27;;;;;;;0.00;0.00;;;;;;;11.71;81.53;102161.88;7364557;19;20006;-59
2022/05/07 03:42:53;;;;;;;0.00;0.00;;;;;;;11.72;81.45;102152.28;7365707;19;20113;-60
2022/05/07 03:45:19;;;;;;;0.00;0.00;;;;;;;11.78;81.44;102157.50;7362464;19;20924;-59
2022/05/07 03:47:45;;;;;;;0.00;0.00;;;;;;;11.80;80.98;102155.72;7366105;19;20014;-59
2022/05/07 03:50:10;;;;;;;0.10;0.10;;;;;;;11.78;80.46;102152.25;7367201;19;20708;-59
2022/05/07 03:55:20;;;;;;;0.00;0.00;;;;;;;11.79;80.23;102160.09;7364385;19;20033;-59
2022/05/07 03:57:45;;;;;;;0.00;0.00;;;;;;;11.79;80.16;102164.47;7366122;19;20010;-60
2022/05/07 04:00:11;;;;;;;0.00;0.00;;;;;;;11.78;80.49;102162.72;7365127;19;20007;-59
2022/05/07 04:02:37;;;;;;;0.00;0.00;;;;;;;11.71;80.94;102159.28;7363646;19;20011;-59
2022/05/07 04:05:03;;;;;;;0.00;0.00;;;;;;;11.75;80.86;102160.97;7365148;19;20002;-60
2022/05/07 04:07:28;;;;;;;0.00;0.00;;;;;;;11.76;80.77;102167.06;7364909;19;20013;-59
2022/05/07 04:09:54;;;;;;;0.00;0.00;;;;;;;11.75;80.53;102167.97;7361817;19;20010;-60
2022/05/07 04:12:20;;;;;;;0.00;0.00;;;;;;;11.67;80.24;102161.03;7366638;19;20664;-59
2022/05/07 04:14:45;;;;;;;0.00;0.00;;;;;;;11.72;80.12;102173.22;7363906;19;20082;-60
2022/05/07 04:17:11;;;;;;;0.00;0.00;;;;;;;11.72;80.15;102173.22;7363215;19;20078;-61
2022/05/07 04:19:36;;;;;;;0.10;0.10;;;;;;;11.68;79.95;102167.13;7365098;19;20006;-59
2022/05/07 04:22:02;;;;;;;0.00;0.00;;;;;;;11.67;79.85;102166.25;7365185;19;20023;-60
2022/05/07 04:24:28;;;;;;;0.00;0.00;;;;;;;11.66;80.25;102175.00;7363385;19;19998;-60
2022/05/07 04:26:54;;;;;;;0.00;0.00;;;;;;;11.63;80.43;102177.59;7365881;19;20708;-60
2022/05/07 04:29:20;;;;;;;0.00;0.00;;;;;;;11.62;79.98;102178.47;7364375;19;20030;-60
2022/05/07 04:31:46;;;;;;;0.10;0.10;;;;;;;11.60;79.87;102177.59;7364440;19;20002;-60
2022/05/07 04:34:11;;;;;;;0.03;0.03;;;;;;;11.59;79.91;102178.47;7363709;19;20011;-60
2022/05/07 04:36:37;;;;;;;0.00;0.00;;;;;;;11.48;79.53;102164.56;7365343;19;20014;-59
2022/05/07 04:39:02;;;;;;;0.00;0.00;;;;;;;11.53;79.06;102181.13;7364619;19;20020;-60
2022/05/07 04:41:28;;;;;;;0.00;0.00;;;;;;;11.50;79.57;102178.50;7363859;19;20011;-61
2022/05/07 04:43:53;;;;;;;0.00;0.00;;;;;;;11.47;79.44;102178.53;7364587;19;20375;-60
2022/05/07 04:46:18;;;;;;;0.00;0.00;;;;;;;11.40;79.69;102172.47;7365422;19;20010;-60
2022/05/07 04:48:46;;;;;;;0.00;0.00;;;;;;;11.41;80.06;102183.78;7364423;19;20674;-59
2022/05/07 04:51:11;;;;;;;0.00;0.00;;;;;;;11.40;79.94;102187.25;7364053;19;20002;-59
2022/05/07 04:53:37;;;;;;;0.00;0.00;;;;;;;11.38;79.41;102197.72;7363532;19;20006;-59
2022/05/07 04:56:02;;;;;;;0.00;0.00;;;;;;;11.35;79.52;102195.13;7364700;19;20005;-60
2022/05/07 04:58:28;;;;;;;0.00;0.00;;;;;;;11.34;79.26;102202.97;7362858;19;20017;-60
2022/05/07 05:00:53;;;;;;;0.00;0.00;;;;;;;11.31;79.18;102203.84;7364690;19;20010;-60
2022/05/07 05:03:19;;;;;;;0.00;0.00;;;;;;;10.95;79.11;102146.34;7361094;19;20827;-59
2022/05/07 05:05:44;;;;;;;0.00;0.00;;;;;;;11.21;79.50;102196.91;7363494;19;20014;-59
2022/05/07 05:08:10;;;;;;;0.00;0.00;;;;;;;11.22;79.58;102203.84;7363326;19;21529;-60
2022/05/07 05:10:35;;;;;;;0.00;0.00;;;;;;;11.18;79.82;102202.13;7363194;19;20025;-60
2022/05/07 05:13:01;;;;;;;0.00;0.00;;;;;;;11.20;80.18;102207.34;7362756;19;20034;-60
2022/05/07 05:15:26;;;;;;;0.00;0.00;;;;;;;11.20;80.41;102208.19;7362273;19;20023;-60
2022/05/07 05:17:52;;;;;;;0.00;0.00;;;;;;;11.22;81.10;102214.31;7361202;19;20363;-59
2022/05/07 05:20:18;;;;;;;0.00;0.00;;;;;;;11.24;80.65;102211.69;7364163;19;20025;-59
2022/05/07 05:22:50;;;;;;;0.10;0.10;;;;;;;11.28;80.78;102218.66;7362640;19;20102;-60
2022/05/07 05:25:16;;;;;;;0.10;0.10;;;;;;;11.17;81.14;102198.63;7362639;19;20073;-60
2022/05/07 05:27:42;;;;;;;0.00;0.00;;;;;;;11.32;80.81;102230.88;7363186;19;20010;-60
2022/05/07 05:30:09;;;;;;;0.00;0.00;;;;;;;11.29;80.82;102215.16;7362889;19;20010;-60
2022/05/07 05:32:34;;;;;;;0.00;0.00;;;;;;;11.36;80.77;102224.78;7359856;19;20014;-60
2022/05/07 05:34:59;;;;;;;0.00;0.00;;;;;;;11.32;80.30;102226.50;7362387;19;20017;-60
2022/05/07 05:37:25;;;;;;;0.00;0.00;;;;;;;11.42;80.47;102232.59;7362576;19;20010;-60
2022/05/07 05:39:50;;;;;;;0.00;0.00;;;;;;;11.43;80.82;102234.34;7360519;19;20082;-60
2022/05/07 05:42:15;;;;;;;0.00;0.00;;;;;;;11.46;80.42;102239.56;7362765;19;20014;-61
2022/05/07 05:44:42;;;;;;;0.00;0.00;;;;;;;11.38;80.37;102230.84;7362131;19;20010;-59
2022/05/07 05:47:09;;;;;;;0.05;0.05;;;;;;;11.47;79.99;102246.53;7361823;19;20013;-60
2022/05/07 05:49:35;;;;;;;0.00;0.00;;;;;;;11.42;80.24;102243.06;7363348;19;20094;-60
2022/05/07 05:52:02;;;;;;;0.03;0.03;;;;;;;11.52;80.84;102263.09;7361067;19;20407;-60
2022/05/07 05:54:28;;;;;;;0.00;0.00;;;;;;;11.54;80.46;102258.72;7363153;19;20014;-59
2022/05/07 05:56:53;;;;;;;0.00;0.00;;;;;;;11.51;80.43;102258.75;7359580;19;21110;-60
2022/05/07 05:59:19;;;;;;;0.00;0.00;;;;;;;11.60;80.83;102274.41;7361766;19;20007;-59
2022/05/07 06:01:44;;;;;;;0.00;0.00;;;;;;;11.62;80.71;102267.44;7360924;19;20006;-60
2022/05/07 06:04:10;;;;;;;0.00;0.00;;;;;;;11.58;80.68;102260.47;7361896;19;20469;-59
2022/05/07 06:06:35;;;;;;;0.00;0.00;;;;;;;11.70;80.87;102281.38;7362517;19;20075;-60
2022/05/07 06:09:01;;;;;;;0.00;0.00;;;;;;;11.52;80.76;102244.78;7361850;19;20086;-60
2022/05/07 06:11:26;;;;;;;0.00;0.00;;;;;;;11.75;80.62;102281.34;7362769;19;20009;-60
2022/05/07 06:13:52;;;;;;;0.00;0.00;;;;;;;11.78;80.23;102277.88;7359490;19;20039;-58
2022/05/07 06:16:17;;;;;;;0.00;0.00;;;;;;;11.81;79.94;102283.09;7362485;19;20491;-60
2022/05/07 06:18:43;;;;;;;0.03;0.03;;;;;;;11.81;79.90;102283.09;7360461;19;20014;-60
2022/05/07 06:21:09;;;;;;;0.00;0.00;;;;;;;11.81;80.23;102283.09;7361456;19;20339;-60
2022/05/07 06:23:34;;;;;;;0.00;0.00;;;;;;;11.83;80.30;102291.84;7359935;19;20553;-59
2022/05/07 06:28:43;;;;;;;0.00;0.00;;;;;;;11.80;80.25;102281.34;7351642;19;20046;-60
2022/05/07 06:31:12;;;;;;;0.00;0.00;;;;;;;11.76;80.10;102274.38;7356472;19;20014;-59
2022/05/07 06:33:41;;;;;;;0.10;0.10;;;;;;;11.83;80.13;102287.50;7357047;19;20007;-60
2022/05/07 06:36:07;;;;;;;0.00;0.00;;;;;;;11.87;80.24;102298.84;7355728;19;20981;-60
2022/05/07 06:38:33;;;;;;;0.00;0.00;;;;;;;11.88;80.63;102295.34;7355077;19;20003;-59
2022/05/07 06:41:02;;;;;;;0.00;0.00;;;;;;;11.92;80.12;102299.69;7357524;19;20044;-59
2022/05/07 06:43:31;;;;;;;0.00;0.00;;;;;;;11.97;80.41;102299.69;7354600;19;20015;-59
2022/05/07 06:45:57;;;;;;;0.00;0.00;;;;;;;11.97;80.35;102292.69;7356111;19;20363;-60
2022/05/07 06:48:24;;;;;;;0.00;0.00;;;;;;;11.98;80.10;102294.44;7364115;19;20010;-60
2022/05/07 06:50:49;;;;;;;0.00;0.00;;;;;;;12.01;80.05;102296.16;7360985;19;20007;-59
2022/05/07 06:53:15;;;;;;;0.00;0.00;;;;;;;12.03;79.70;102294.44;7365169;19;20031;-59
2022/05/07 06:55:56;;;;;;;0.00;0.00;;;;;;;12.03;79.63;102297.91;7345580;19;20006;-61
2022/05/07 06:58:34;;;;;;;0.00;0.00;;;;;;;12.05;79.59;102296.16;7347599;19;20006;-59
2022/05/07 07:01:02;;;;;;;0.00;0.00;;;;;;;12.00;79.71;102295.28;7357119;19;20002;-59
2022/05/07 07:03:28;;;;;;;0.00;0.00;;;;;;;11.99;79.83;102288.31;7360109;19;20015;-60
2022/05/07 07:05:56;;;;;;;0.10;0.10;;;;;;;11.96;80.03;102288.31;7360564;19;20006;-60
2022/05/07 07:08:21;;;;;;;0.00;0.00;;;;;;;12.12;80.03;102313.59;7360442;19;20021;-59
2022/05/07 07:10:47;;;;;;;0.00;0.00;;;;;;;12.16;80.10;102314.44;7360151;19;20006;-60
2022/05/07 07:13:13;;;;;;;0.00;0.00;;;;;;;12.22;80.74;102313.56;7360079;19;20078;-59
2022/05/07 07:15:39;;;;;;;0.00;0.00;;;;;;;12.29;80.81;102323.13;7359277;19;20006;-59
2022/05/07 07:18:09;;;;;;;0.00;0.00;;;;;;;12.35;80.61;102313.50;7357266;19;20014;-59
2022/05/07 07:20:44;;;;;;;0.00;0.00;;;;;;;12.32;80.58;102302.19;7360726;19;20034;-59
2022/05/07 07:23:13;;;;;;;0.00;0.00;;;;;;;12.55;80.96;102321.25;7367022;19;20039;-59
2022/05/07 07:25:40;;;;;;;0.00;0.00;;;;;;;12.64;80.64;102326.47;7366246;19;20423;-60
2022/05/07 07:28:07;;;;;;;0.10;0.10;;;;;;;12.76;80.58;102316.78;7362651;19;20828;-60
2022/05/07 07:30:33;;;;;;;0.00;0.00;;;;;;;12.88;80.74;102324.59;7364259;19;20007;-60
2022/05/07 07:32:59;;;;;;;0.10;0.10;;;;;;;12.98;80.38;102327.16;7362802;19;20009;-59
2022/05/07 07:35:24;;;;;;;0.03;0.03;;;;;;;13.09;80.33;102329.69;7363711;19;20074;-60
2022/05/07 07:37:50;;;;;;;0.00;0.00;;;;;;;13.19;80.75;102320.88;7358923;19;20815;-59
2022/05/07 07:40:15;;;;;;;0.00;0.00;;;;;;;13.30;80.47;102315.56;7366503;19;20018;-60
2022/05/07 07:42:41;;;;;;;0.00;0.00;;;;;;;13.53;80.55;102324.97;7363628;19;20019;-60
2022/05/07 07:48:03;;;;;;;0.10;0.10;;;;;;;13.91;80.29;102322.00;7367550;19;20113;-59
2022/05/07 07:50:37;;;;;;;0.00;0.00;;;;;;;14.11;79.57;102329.66;7362270;19;20042;-60
2022/05/07 07:53:06;;;;;;;0.00;0.00;;;;;;;14.24;79.20;102326.88;7368151;19;20014;-59
2022/05/07 07:55:32;;;;;;;0.08;0.08;;;;;;;14.33;79.01;102322.38;7363711;19;20010;-59
2022/05/07 07:58:00;;;;;;;0.05;0.05;;;;;;;14.40;78.89;102321.44;7365273;19;20046;-60
2022/05/07 08:00:27;;;;;;;0.08;0.08;;;;;;;14.57;78.58;102324.75;7361892;19;20018;-61
2022/05/07 08:03:00;;;;;;;0.00;0.00;;;;;;;14.73;78.72;102321.00;7363558;19;20021;-59
2022/05/07 08:05:34;;;;;;;0.00;0.00;;;;;;;14.85;78.71;102333.13;7365267;19;20018;-60
2022/05/07 08:13:40;;;;;;;0.10;0.10;;;;;;;15.05;77.77;102338.06;7366602;19;20021;-59
2022/05/07 08:16:09;;;;;;;0.10;0.10;;;;;;;15.17;77.41;102337.91;7366390;19;20010;-60
2022/05/07 08:18:35;;;;;;;0.00;0.00;;;;;;;15.24;76.30;102342.16;7364928;19;20874;-61
2022/05/07 08:21:01;;;;;;;0.00;0.00;;;;;;;15.31;76.99;102341.19;7365611;19;20021;-60
2022/05/07 08:23:27;;;;;;;0.08;0.08;;;;;;;15.44;77.07;102348.88;7365869;19;20029;-60
2022/05/07 08:25:53;;;;;;;0.00;0.00;;;;;;;15.51;76.52;102348.75;7365036;19;20561;-59
2022/05/07 08:28:19;;;;;;;0.08;0.08;;;;;;;15.52;76.60;102333.81;7363963;19;20011;-59
2022/05/07 08:30:45;;;;;;;0.00;0.00;;;;;;;15.66;76.67;102342.38;7365416;19;20034;-59
2022/05/07 08:33:10;;;;;;;0.10;0.10;;;;;;;15.73;76.36;102338.75;7363376;19;20027;-60
2022/05/07 08:35:36;;;;;;;0.00;0.00;;;;;;;15.81;76.55;102342.13;7361819;19;20010;-59
2022/05/07 08:38:01;;;;;;;0.00;0.00;;;;;;;15.90;76.53;102338.41;7363656;19;20015;-60
2022/05/07 08:40:27;;;;;;;0.00;0.00;;;;;;;15.92;76.77;102317.34;7363065;19;20030;-60
2022/05/07 08:42:54;;;;;;;0.10;0.10;;;;;;;16.15;76.80;102323.00;7364262;19;20090;-59
2022/05/07 08:45:19;;;;;;;0.00;0.00;;;;;;;16.20;76.26;102307.97;7364426;19;20050;-59
2022/05/07 08:47:45;;;;;;;0.00;0.00;;;;;;;16.44;75.83;102318.91;7364940;19;20906;-59
2022/05/07 08:50:16;;;;;;;0.10;0.10;;;;;;;16.50;75.73;102310.88;7359371;19;20027;-60
2022/05/07 08:52:43;;;;;;;0.00;0.00;;;;;;;16.68;75.93;102320.16;7363165;19;20048;-59
2022/05/07 08:55:11;;;;;;;0.10;0.10;;;;;;;16.81;75.26;102311.06;7362283;19;20026;-60
2022/05/07 08:57:38;;;;;;;0.00;0.00;;;;;;;16.83;75.40;102304.88;7360040;19;20017;-60
2022/05/07 09:00:05;;;;;;;0.08;0.08;;;;;;;17.07;74.96;102323.66;7361573;19;20006;-59
2022/05/07 09:02:42;;;;;;;0.00;0.00;;;;;;;17.26;75.61;102330.22;7360313;19;20826;-60
2022/05/07 09:05:12;;;;;;;0.00;0.00;;;;;;;17.31;74.61;102328.34;7359484;19;20465;-60
2022/05/07 09:07:39;;;;;;;0.10;0.10;;;;;;;17.41;74.85;102330.75;7362319;19;20011;-60
2022/05/07 09:10:13;;;;;;;;;;;;;;;17.61;76.22;102336.41;7359934;19;20018;-60
2022/05/07 09:12:39;;;;;;;0.10;0.10;;;;;;;17.60;73.48;102329.38;7361471;19;20673;-60
2022/05/07 09:15:07;;;;;;;0.00;0.00;;;;;;;17.75;73.04;102334.31;7360861;19;20006;-59
2022/05/07 09:17:33;;;;;;;0.10;0.10;;;;;;;17.81;72.95;102339.41;7359283;19;20573;-60
2022/05/07 09:20:18;;;;;;;0.10;0.10;;;;;;;17.95;73.92;102340.84;7356858;19;20533;-60
2022/05/07 09:22:55;;;;;;;0.10;0.10;;;;;;;18.09;73.66;102346.59;7356043;19;20524;-61
2022/05/07 09:25:25;;;;;;;0.10;0.10;;;;;;;18.17;72.87;102347.25;7358877;19;20090;-61
2022/05/07 09:27:54;;;;;;;0.10;0.10;;;;;;;18.19;72.96;102340.13;7357771;19;20017;-60
2022/05/07 09:30:32;;;;;;;0.10;0.10;;;;;;;18.30;72.44;102343.34;7359527;19;20463;-59
2022/05/07 09:32:58;;;;;;;0.10;0.10;;;;;;;18.25;71.94;102339.97;7352414;19;20010;-60
2022/05/07 09:38:13;;;;;;;0.05;0.05;;;;;;;18.29;71.73;102341.59;7265587;19;2005116;-61
2022/05/07 09:40:41;;;;;;;0.00;0.00;;;;;;;18.30;72.38;102338.06;7367481;19;20073;-59
2022/05/07 09:43:12;;;;;;;0.10;0.10;;;;;;;18.33;72.65;102337.97;7364578;19;20019;-60
2022/05/07 09:45:39;;;;;;;0.10;0.10;;;;;;;18.29;72.03;102346.88;7365456;19;20129;-60
2022/05/07 09:48:06;;;;;;;0.00;0.00;;;;;;;18.33;72.38;102337.97;7366745;19;20007;-59
2022/05/07 09:58:42;;;;;;;0.10;0.10;;;;;;;18.54;72.53;102340.88;7362390;19;20030;-60
2022/05/07 10:01:31;;;;;;;0.10;0.10;;;;;;;18.75;74.06;102340.25;7362990;19;20022;-61
2022/05/07 10:04:04;;;;;;;0.10;0.10;;;;;;;18.79;70.57;102336.63;7261482;19;2004366;-60
2022/05/07 10:07:00;;;;;;;0.08;0.08;;;;;;;18.99;72.75;102337.78;7363678;19;20038;-59
2022/05/07 10:09:40;;;;;;;0.00;0.00;;;;;;;19.09;71.19;102337.44;7261042;19;2004673;-59
2022/05/07 10:12:08;;;;;;;0.00;0.00;;;;;;;19.11;71.31;102316.19;7363887;19;20014;-59
2022/05/07 10:14:33;;;;;;;;;;;;;;;19.57;73.80;102335.88;7366557;19;20010;-59
2022/05/07 10:17:01;;;;;;;0.00;0.00;;;;;;;19.87;71.43;102333.94;7357856;19;19926;-60
2022/05/07 10:19:39;;;;;;;0.00;0.00;;;;;;;20.43;71.86;102329.22;7362828;19;20042;-60
2022/05/07 10:22:26;;;;;;;0.10;0.10;;;;;;;20.93;70.17;102334.38;7364389;19;20350;-60
2022/05/07 10:25:06;;;;;;;0.05;0.05;;;;;;;21.31;68.89;102339.94;7364301;19;20574;-59
2022/05/07 10:27:37;;;;;;;0.10;0.10;;;;;;;21.32;66.87;102320.41;7361976;19;20099;-60
2022/05/07 10:30:06;;;;;;;0.10;0.10;;;;;;;21.60;67.09;102340.50;7364297;19;20070;-60
2022/05/07 10:32:43;;;;;;;0.05;0.05;;;;;;;21.85;68.47;102341.19;7363256;19;20021;-60
2022/05/07 10:35:09;;;;;;;0.10;0.10;;;;;;;22.10;63.25;102335.63;7364328;19;20820;-60
2022/05/07 10:37:40;;;;;;;0.10;0.10;;;;;;;22.65;65.50;102332.22;7361168;19;20082;-59
2022/05/07 10:40:10;;;;;;;0.10;0.10;;;;;;;23.09;62.65;102334.59;7365382;19;20833;-61
2022/05/07 10:42:40;;;;;;;0.10;0.10;;;;;;;23.36;62.44;102330.53;7360962;19;20026;-61
2022/05/07 10:45:07;;;;;;;0.10;0.10;;;;;;;23.39;60.42;102330.38;7361522;19;20021;-60
2022/05/07 10:47:33;;;;;;;0.10;0.10;;;;;;;23.43;58.65;102326.63;7355137;19;20031;-60
2022/05/07 10:50:10;;;;;;;0.10;0.10;;;;;;;23.55;63.81;102312.66;7353127;19;20385;-60
2022/05/07 10:52:35;;;;;;;0.03;0.03;;;;;;;23.64;59.75;102323.81;7362999;19;20019;-59
2022/05/07 10:55:10;;;;;;;0.00;0.00;;;;;;;24.02;61.77;102332.47;7371825;19;20013;-59
2022/05/07 10:57:59;;;;;;;0.10;0.10;;;;;;;24.48;63.32;102325.53;7371409;19;20002;-60
2022/05/07 11:00:24;;;;;;;0.10;0.10;;;;;;;24.66;57.62;102330.78;7370064;19;20029;-59
2022/05/07 11:02:56;;;;;;;0.00;0.00;;;;;;;24.99;58.76;102323.53;7368902;19;19999;-59
2022/05/07 11:05:32;;;;;;;0.10;0.10;;;;;;;25.34;59.82;102334.00;7365109;19;20021;-60
2022/05/07 11:07:59;;;;;;;0.10;0.10;;;;;;;25.54;54.08;102331.00;7357793;19;20010;-60
2022/05/07 11:10:25;;;;;;;0.10;0.10;;;;;;;25.73;54.84;102328.06;7369413;19;20006;-60
2022/05/07 11:12:51;;;;;;;0.10;0.10;;;;;;;25.93;52.62;102334.91;7363719;19;20003;-60
2022/05/07 11:15:26;;;;;;;0.10;0.10;;;;;;;26.23;55.82;102323.25;7369010;19;20007;-60
2022/05/07 11:17:52;;;;;;;0.10;0.10;;;;;;;26.24;52.89;102314.25;7368050;19;20011;-60
2022/05/07 11:20:35;;;;;;;0.10;0.10;;;;;;;26.46;57.69;102314.66;7371090;19;20022;-60
2022/05/07 11:23:03;;;;;;;0.10;0.10;;;;;;;26.28;53.76;102305.09;7339682;19;20040;-60
2022/05/07 11:25:28;;;;;;;0.10;0.10;;;;;;;26.35;52.42;102303.72;7369983;19;20010;-60
2022/05/07 11:27:56;;;;;;;0.10;0.10;;;;;;;26.49;50.93;102314.44;7368090;19;20014;-60
2022/05/07 11:30:21;;;;;;;0.10;0.10;;;;;;;26.28;50.73;102300.59;7368912;19;20064;-60
2022/05/07 11:32:47;;;;;;;0.10;0.10;;;;;;;26.24;51.88;102320.47;7369413;19;20002;-60
2022/05/07 11:35:12;;;;;;;0.10;0.10;;;;;;;26.13;49.88;102322.97;7368684;19;20006;-59
2022/05/07 11:37:40;;;;;;;0.10;0.10;;;;;;;25.97;50.07;102317.72;7362982;19;20017;-60
2022/05/07 11:40:08;;;;;;;0.10;0.10;;;;;;;25.88;52.61;102315.59;7364456;19;20621;-60
2022/05/07 11:42:35;;;;;;;0.05;0.05;;;;;;;25.86;53.69;102317.53;7363133;19;20029;-60
2022/05/07 11:47:54;;;;;;;0.10;0.10;;;;;;;25.83;56.34;102320.38;7360454;19;20034;-61
2022/05/07 11:50:41;;;;;;;0.00;0.00;;;;;;;25.78;59.22;102323.34;7365473;19;20010;-60
2022/05/07 11:53:14;;;;;;;0.10;0.10;;;;;;;25.78;57.36;102325.16;7363227;19;20663;-60
2022/05/07 11:55:41;;;;;;;0.10;0.10;;;;;;;25.68;53.95;102321.28;7362023;19;20011;-60
2022/05/07 11:58:24;;;;;;;0.10;0.10;;;;;;;25.68;54.86;102326.63;7362515;19;20047;-60
2022/05/07 12:00:57;;;;;;;0.10;0.10;;;;;;;25.57;56.58;102325.47;7360337;19;20018;-59